ADDS TAF Board (Experimental) INFO Settings

IDs: Format: Expanded Condensed

KLAX - Los Angeles Intl, CA, US

Issued at 2051 UTC 02 Mar 2015
Updated at: 2306 UTC 02 Mar 2015
Time2253Z 03/00Z 03/01Z 03/02Z 03/03Z 03/04Z 03/05Z 03/06Z 03/07Z 03/08Z 03/09Z 03/10Z 03/11Z 03/12Z
Type OBS PRVL PRVL PRVL PRVL PRVL PRVL PRVL PRVL PRVL PRVL PRVL PRVL PRVL
VIS 10 >6 >6 >6 >6 >6 >6 >6 >6 >6 >6 >6 >6 >6
CIG -- 35 35 35 50 50 50 50 50 -- -- -- -- --
Cover SCT BKN BKN BKN BKN BKN BKN BKN BKN SCT SCT SCT SCT SCT
FltCat VFR VFR VFR VFR VFR VFR VFR VFR VFR VFR VFR VFR VFR VFR
WX -- VCSH VCSH VCSH VCSH VCSH VCSH VCSH VCSH -- -- -- -- --
WDir 260 250 250 250 VRB VRB VRB VRB VRB VRB VRB VRB VRB VRB
WSpd 10 10 10 10 3 3 3 3 3 3 3 3 3 3
WGst -- -- -- -- -- -- -- -- -- -- -- -- -- --
R06/24
XWnd -1 -2 -2 -2 VRB VRB VRB VRB VRB VRB VRB VRB VRB VRB
HWnd -10 -10 -10 -10 VRB VRB VRB VRB VRB VRB VRB VRB VRB VRB
R07/25
XWnd -1 -2 -2 -2 VRB VRB VRB VRB VRB VRB VRB VRB VRB VRB
HWnd -10 -10 -10 -10 VRB VRB VRB VRB VRB VRB VRB VRB VRB VRB

NOTE: TEMPO conditions in [brackets]. Keep in mind TEMPO conditions might be better (lower impact) than prevailing conditions.

Raw TAF
KLAX 022051Z 0221/0324 17005KT P6SM -SHRA FEW025 SCT030 BKN060
  FM022300 25010KT P6SM VCSH SCT025 BKN035
  FM030300 VRB03KT P6SM VCSH BKN050
  FM030800 VRB03KT P6SM SCT060
  FM031900 26010KT P6SM SKC


Raw METAR
KLAX 022253Z 26010KT 10SM FEW060 SCT250 15/06 A2990 RMK AO2 SLP125 T01500056
KLAX 022153Z 25008KT 10SM FEW027 SCT047 BKN060 15/06 A2990 RMK AO2 SLP125 T01500056
KLAX 022053Z 26009KT 10SM FEW027 BKN046 BKN055 15/05 A2991 RMK AO2 SLP127 60000 T01500050 58005

METAR Board
Radar Display
Forecast Discussion

TAF Board Legend

Potential Impact
Threat None Slight Moderate High
Visibility (sm) ≥5.1 5.1>X≥3 3>X≥1 <1
Ceiling (100 ft) ≥30.1 30.1>X≥10 10>X≥5 <5
Wind Speed (kt) <10 10≤X<20 20≤X<30 ≥30
Wind Gust (kt) <15 15≤X<25 25≤X<35 ≥35
Weather No Wx Reported VCTS,-TS,-FZRA,SN TS,FZRA +TS,+FZRA,+SN